Time;durP1;ratioP1;P1;durP2;ratioP2;P2;SDS_P1;SDS_P2;PMS_P1;PMS_P2;Temp;Humidity;BMP_temperature;BMP_pressure;BME280_temperature;BME280_humidity;BME280_pressure;Samples;Min_cycle;Max_cycle;Signal;HPM_P1;HPM_P2
2022/03/18 00:02:01;;;;;;;;;41.75;35.75;;;;;-146.03;100.00;60875.16;4996907;28;45460;-83
2022/03/18 00:04:27;;;;;;;;;38.25;34.25;;;;;-146.03;100.00;60875.16;5013969;28;45446;-83
2022/03/18 00:06:54;;;;;;;;;34.25;33.00;;;;;-146.03;100.00;60875.16;5013435;28;45858;-83
2022/03/18 00:09:19;;;;;;;;;42.75;36.50;;;;;-146.03;100.00;60875.16;5013968;28;45509;-83
2022/03/18 00:11:44;;;;;;;;;32.50;29.75;;;;;-146.03;100.00;60875.16;5013809;28;45874;-83
2022/03/18 00:14:10;;;;;;;;;33.50;31.75;;;;;-146.03;100.00;60875.16;5013159;28;45355;-83
2022/03/18 00:16:35;;;;;;;;;39.75;35.50;;;;;-146.03;100.00;60875.16;5013486;28;45439;-82
2022/03/18 00:19:01;;;;;;;;;35.00;31.75;;;;;-146.03;100.00;60875.16;5013708;28;45464;-83
2022/03/18 00:21:27;;;;;;;;;41.25;36.00;;;;;-146.03;100.00;60875.16;5013888;28;45699;-83
2022/03/18 00:23:52;;;;;;;;;38.25;34.50;;;;;-146.03;100.00;60875.16;4995759;28;45551;-81
2022/03/18 00:26:18;;;;;;;;;41.00;34.75;;;;;-146.03;100.00;60875.16;5014158;28;46280;-83
2022/03/18 00:28:43;;;;;;;;;43.00;37.00;;;;;-146.03;100.00;60875.16;4996271;28;45907;-83
2022/03/18 00:31:09;;;;;;;;;42.50;36.25;;;;;-146.03;100.00;60875.16;5014102;28;45492;-83
2022/03/18 00:33:34;;;;;;;;;37.50;33.75;;;;;-146.03;100.00;60875.16;5013861;28;45443;-83
2022/03/18 00:36:01;;;;;;;;;39.00;35.00;;;;;-146.03;100.00;60875.16;5013941;28;46520;-83
2022/03/18 00:38:26;;;;;;;;;50.75;37.75;;;;;-146.03;100.00;60875.16;5014088;28;45317;-83
2022/03/18 00:40:54;;;;;;;;;38.50;31.50;;;;;-146.03;100.00;60875.16;5014170;28;45376;-83
2022/03/18 00:43:19;;;;;;;;;36.00;31.25;;;;;-146.03;100.00;60875.16;5013655;28;45524;-83
2022/03/18 00:45:44;;;;;;;;;40.50;33.00;;;;;-146.03;100.00;60875.16;5013365;28;45533;-83
2022/03/18 00:53:38;;;;;;;;;32.75;28.25;;;;;-146.03;100.00;60875.16;5013730;28;45371;-83
2022/03/18 00:56:03;;;;;;;;;42.00;32.50;;;;;-146.03;100.00;60875.16;5012659;28;47396;-83
2022/03/18 00:58:29;;;;;;;;;35.50;31.25;;;;;-146.03;100.00;60875.16;5013840;28;47916;-83
2022/03/18 01:00:55;;;;;;;;;30.25;28.50;;;;;-146.03;100.00;60875.16;5013940;28;45632;-83
2022/03/18 01:03:21;;;;;;;;;35.50;31.25;;;;;-146.03;100.00;60875.16;5013934;28;45536;-82
2022/03/18 01:05:46;;;;;;;;;33.75;30.25;;;;;-146.03;100.00;60875.16;5001652;28;45298;-81
2022/03/18 01:08:11;;;;;;;;;34.00;31.75;;;;;-146.03;100.00;60875.16;5017605;28;45482;-82
2022/03/18 01:10:37;;;;;;;;;39.75;36.00;;;;;-146.03;100.00;60875.16;5016973;28;45567;-82
2022/03/18 01:13:03;;;;;;;;;39.00;32.25;;;;;-146.03;100.00;60875.16;5017067;28;45636;-82
2022/03/18 01:15:28;;;;;;;;;37.00;33.50;;;;;-146.03;100.00;60875.16;5014389;28;45495;-82
2022/03/18 01:17:54;;;;;;;;;40.75;30.50;;;;;-146.03;100.00;60875.16;4997634;28;45446;-82
2022/03/18 01:20:19;;;;;;;;;31.75;29.50;;;;;-146.03;100.00;60875.16;5016560;28;45469;-82
2022/03/18 01:22:45;;;;;;;;;37.50;32.75;;;;;-146.03;100.00;60875.16;5017153;28;45625;-82
2022/03/18 01:25:10;;;;;;;;;34.00;29.75;;;;;-146.03;100.00;60875.16;4996792;28;47510;-82
2022/03/18 01:27:35;;;;;;;;;37.50;33.50;;;;;-146.03;100.00;60875.16;5016475;28;45414;-82
2022/03/18 01:30:01;;;;;;;;;37.50;29.50;;;;;-146.03;100.00;60875.16;5016455;28;45444;-82
2022/03/18 01:32:26;;;;;;;;;37.00;34.00;;;;;-146.03;100.00;60875.16;5016134;28;45444;-82
2022/03/18 01:34:53;;;;;;;;;37.25;30.25;;;;;-146.03;100.00;60875.16;5016245;28;46248;-82
2022/03/18 01:37:18;;;;;;;;;35.50;31.75;;;;;-146.03;100.00;60875.16;4997396;28;45408;-82
2022/03/18 01:39:44;;;;;;;;;39.00;32.25;;;;;-146.03;100.00;60875.16;5016090;28;45893;-82
2022/03/18 01:42:09;;;;;;;;;35.25;29.00;;;;;-146.03;100.00;60875.16;4997156;28;45475;-82
2022/03/18 01:44:41;;;;;;;;;31.75;28.75;;;;;-146.03;100.00;60875.16;5011349;28;45637;-82
2022/03/18 01:47:07;;;;;;;;;27.75;25.00;;;;;-146.03;100.00;60875.16;5008154;28;45559;-82
2022/03/18 01:49:32;;;;;;;;;37.25;30.50;;;;;-146.03;100.00;60875.16;5012074;28;45527;-82
2022/03/18 01:51:59;;;;;;;;;37.50;33.25;;;;;-146.03;100.00;60875.16;5010404;28;45531;-82
2022/03/18 01:57:08;;;;;;;;;36.75;31.75;;;;;-146.03;100.00;60875.16;5011775;28;45481;-82
2022/03/18 01:59:34;;;;;;;;;36.50;34.50;;;;;-146.03;100.00;60875.16;5009136;28;45706;-82
2022/03/18 02:01:59;;;;;;;;;38.50;34.25;;;;;-146.03;100.00;60875.16;5009735;28;45583;-82
2022/03/18 02:04:24;;;;;;;;;43.50;34.75;;;;;-146.03;100.00;60875.16;5008898;28;45991;-82
2022/03/18 02:06:50;;;;;;;;;32.25;30.75;;;;;-146.03;100.00;60875.16;5005057;28;45596;-82
2022/03/18 02:09:16;;;;;;;;;47.00;38.75;;;;;-146.03;100.00;60875.16;5012064;28;45344;-82
2022/03/18 02:11:43;;;;;;;;;39.00;30.75;;;;;-146.03;100.00;60875.16;5012100;28;45595;-82
2022/03/18 02:14:08;;;;;;;;;31.00;27.00;;;;;-146.03;100.00;60875.16;4994436;28;46126;-82
2022/03/18 02:16:34;;;;;;;;;38.75;35.00;;;;;-146.03;100.00;60875.16;5012740;28;45499;-82
2022/03/18 02:18:59;;;;;;;;;35.50;32.00;;;;;-146.03;100.00;60875.16;5012717;28;45363;-82
2022/03/18 02:21:28;;;;;;;;;37.00;34.00;;;;;-146.03;100.00;60875.16;5009247;28;45387;-82
2022/03/18 02:23:53;;;;;;;;;34.75;30.75;;;;;-146.03;100.00;60875.16;5006764;28;46472;-82
2022/03/18 02:26:19;;;;;;;;;30.25;26.00;;;;;-146.03;100.00;60875.16;5010686;28;45352;-83
2022/03/18 02:28:44;;;;;;;;;39.75;36.75;;;;;-146.03;100.00;60875.16;5010325;28;45794;-82
2022/03/18 02:31:10;;;;;;;;;45.50;37.75;;;;;-146.03;100.00;60875.16;5010273;28;45303;-82
2022/03/18 02:33:35;;;;;;;;;40.00;32.75;;;;;-146.03;100.00;60875.16;5012526;28;45929;-82
2022/03/18 02:36:00;;;;;;;;;40.00;36.00;;;;;-146.03;100.00;60875.16;5012525;28;45356;-82
2022/03/18 02:38:26;;;;;;;;;38.00;34.75;;;;;-146.03;100.00;60875.16;5008142;28;45402;-82
2022/03/18 02:40:51;;;;;;;;;40.25;35.25;;;;;-146.03;100.00;60875.16;5009804;28;45396;-82
2022/03/18 02:43:16;;;;;;;;;44.25;38.00;;;;;-146.03;100.00;60875.16;5010573;28;45430;-82
2022/03/18 02:45:42;;;;;;;;;41.25;36.50;;;;;-146.03;100.00;60875.16;5012690;28;45513;-82
2022/03/18 02:48:07;;;;;;;;;37.50;32.75;;;;;-146.03;100.00;60875.16;5012450;28;47573;-82
2022/03/18 02:50:33;;;;;;;;;40.75;37.00;;;;;-146.03;100.00;60875.16;5011172;28;45506;-82
2022/03/18 02:52:59;;;;;;;;;43.75;34.25;;;;;-146.03;100.00;60875.16;5008733;28;45522;-82
2022/03/18 02:55:24;;;;;;;;;35.00;30.50;;;;;-146.03;100.00;60875.16;5009264;28;46010;-82
2022/03/18 02:57:50;;;;;;;;;41.50;36.25;;;;;-146.03;100.00;60875.16;5009530;28;45506;-82
2022/03/18 03:00:16;;;;;;;;;36.00;34.00;;;;;-146.03;100.00;60875.16;5006966;28;51514;-83
2022/03/18 03:02:42;;;;;;;;;41.00;34.25;;;;;-146.03;100.00;60875.16;5009911;28;45579;-82
2022/03/18 03:08:01;;;;;;;;;43.00;35.00;;;;;-146.03;100.00;60875.16;5007532;28;45398;-82
2022/03/18 03:10:28;;;;;;;;;47.00;36.00;;;;;-146.03;100.00;60875.16;5009461;28;45432;-82
2022/03/18 03:12:54;;;;;;;;;46.25;38.50;;;;;-146.03;100.00;60875.16;5012097;28;47147;-82
2022/03/18 03:15:19;;;;;;;;;48.50;38.00;;;;;-146.03;100.00;60875.16;5009670;28;45528;-82
2022/03/18 03:17:45;;;;;;;;;42.75;38.00;;;;;-146.03;100.00;60875.16;5009395;28;45381;-82
2022/03/18 03:20:11;;;;;;;;;42.00;36.00;;;;;-146.03;100.00;60875.16;5006979;28;45347;-82
2022/03/18 03:22:36;;;;;;;;;45.75;35.75;;;;;-146.03;100.00;60875.16;5008869;28;46077;-83
2022/03/18 03:25:02;;;;;;;;;49.00;39.00;;;;;-146.03;100.00;60875.16;5007335;28;45394;-82
2022/03/18 03:27:31;;;;;;;;;53.75;44.25;;;;;-146.03;100.00;60875.16;5010052;28;45455;-83
2022/03/18 03:30:01;;;;;;;;;55.00;42.25;;;;;-146.03;100.00;60875.16;5009423;28;45520;-82
2022/03/18 03:32:27;;;;;;;;;56.50;44.50;;;;;-146.03;100.00;60875.16;5009600;28;46346;-82
2022/03/18 03:34:54;;;;;;;;;57.75;44.25;;;;;-146.03;100.00;60875.16;5012227;28;45504;-83
2022/03/18 03:37:19;;;;;;;;;53.75;43.00;;;;;-146.03;100.00;60875.16;5009752;28;45421;-82
2022/03/18 03:39:45;;;;;;;;;45.50;37.25;;;;;-146.03;100.00;60875.16;5011791;28;45311;-83
2022/03/18 03:42:10;;;;;;;;;51.00;41.50;;;;;-146.03;100.00;60875.16;5003924;28;45456;-82
2022/03/18 03:44:35;;;;;;;;;43.25;36.25;;;;;-146.03;100.00;60875.16;5011365;28;45634;-83
2022/03/18 03:47:00;;;;;;;;;40.00;34.75;;;;;-146.03;100.00;60875.16;5012574;28;47036;-83
2022/03/18 03:49:26;;;;;;;;;42.25;38.25;;;;;-146.03;100.00;60875.16;5011022;28;49033;-82
2022/03/18 03:51:51;;;;;;;;;48.50;40.25;;;;;-146.03;100.00;60875.16;5006780;28;45606;-83
2022/03/18 03:54:16;;;;;;;;;45.25;39.50;;;;;-146.03;100.00;60875.16;5001789;28;64874;-83
2022/03/18 03:56:42;;;;;;;;;44.25;39.50;;;;;-146.03;100.00;60875.16;5007527;28;45366;-83
2022/03/18 03:59:07;;;;;;;;;46.25;39.75;;;;;-146.03;100.00;60875.16;5004849;28;47596;-83
2022/03/18 04:01:32;;;;;;;;;53.75;42.50;;;;;-146.03;100.00;60875.16;5004526;28;47969;-82
2022/03/18 04:03:58;;;;;;;;;52.50;40.50;;;;;-146.03;100.00;60875.16;5006080;28;55214;-82
2022/03/18 04:06:24;;;;;;;;;51.25;39.75;;;;;-146.03;100.00;60875.16;5000189;28;45524;-82
2022/03/18 04:08:49;;;;;;;;;51.00;40.00;;;;;-146.03;100.00;60875.16;5007557;28;45539;-82
2022/03/18 04:11:15;;;;;;;;;53.25;42.00;;;;;-146.03;100.00;60875.16;5011682;28;45410;-83
2022/03/18 04:13:40;;;;;;;;;54.75;44.75;;;;;-146.03;100.00;60875.16;4990402;28;46225;-82
2022/03/18 04:16:06;;;;;;;;;53.00;45.50;;;;;-146.03;100.00;60875.16;5004967;28;45299;-82
2022/03/18 04:18:31;;;;;;;;;53.75;44.00;;;;;-146.03;100.00;60875.16;5004733;28;45486;-82
2022/03/18 04:20:57;;;;;;;;;51.75;42.25;;;;;-146.03;100.00;60875.16;5003436;28;45508;-82
2022/03/18 04:23:22;;;;;;;;;60.50;44.75;;;;;-146.03;100.00;60875.16;5003783;28;45515;-82
2022/03/18 04:25:50;;;;;;;;;51.75;40.75;;;;;-146.03;100.00;60875.16;5006436;28;47113;-82
2022/03/18 04:28:16;;;;;;;;;53.25;42.00;;;;;-146.03;100.00;60875.16;5003866;28;45419;-82
2022/03/18 04:30:42;;;;;;;;;53.25;44.75;;;;;-146.03;100.00;60875.16;5008251;28;45733;-83
2022/03/18 04:33:07;;;;;;;;;54.50;44.50;;;;;-146.03;100.00;60875.16;5009395;28;45526;-82
2022/03/18 04:35:32;;;;;;;;;47.50;41.00;;;;;-146.03;100.00;60875.16;5010895;28;45457;-82
2022/03/18 04:37:58;;;;;;;;;43.75;38.50;;;;;-146.03;100.00;60875.16;5010300;28;45471;-82
2022/03/18 04:40:23;;;;;;;;;52.50;41.25;;;;;-146.03;100.00;60875.16;5009927;28;45475;-81
2022/03/18 04:42:49;;;;;;;;;41.00;35.25;;;;;-146.03;100.00;60875.16;5013361;28;50579;-82
2022/03/18 04:45:16;;;;;;;;;56.00;43.75;;;;;-146.03;100.00;60875.16;4996549;28;45534;-82
2022/03/18 04:47:41;;;;;;;;;45.50;35.50;;;;;-146.03;100.00;60875.16;5015025;28;45592;-82
2022/03/18 04:50:08;;;;;;;;;42.00;32.75;;;;;-146.03;100.00;60875.16;5008624;28;46590;-82
2022/03/18 04:52:33;;;;;;;;;51.25;40.50;;;;;-146.03;100.00;60875.16;5011564;28;45754;-83
2022/03/18 04:54:58;;;;;;;;;47.25;38.00;;;;;-146.03;100.00;60875.16;5011950;28;45736;-82
2022/03/18 04:57:24;;;;;;;;;36.00;31.75;;;;;-146.03;100.00;60875.16;5011322;28;47155;-82
2022/03/18 04:59:54;;;;;;;;;37.00;35.50;;;;;-146.03;100.00;60875.16;5009793;28;46123;-82
2022/03/18 05:02:20;;;;;;;;;37.00;30.25;;;;;-146.03;100.00;60875.16;5015757;28;45456;-82
2022/03/18 05:04:48;;;;;;;;;35.00;31.50;;;;;-146.03;100.00;60875.16;5016674;28;45503;-82
2022/03/18 05:07:14;;;;;;;;;33.00;29.75;;;;;-146.03;100.00;60875.16;5009859;28;45469;-83
2022/03/18 05:09:41;;;;;;;;;35.00;34.00;;;;;-146.03;100.00;60875.16;5005565;28;45499;-82
2022/03/18 05:12:11;;;;;;;;;34.25;30.00;;;;;-146.03;100.00;60875.16;5003421;28;45463;-82
2022/03/18 05:14:38;;;;;;;;;31.50;29.25;;;;;-146.03;100.00;60875.16;5001040;28;45393;-82
2022/03/18 05:17:04;;;;;;;;;40.25;35.25;;;;;-146.03;100.00;60875.16;5003514;28;45647;-82
2022/03/18 05:19:30;;;;;;;;;31.25;29.00;;;;;-146.03;100.00;60875.16;5005349;28;46019;-82
2022/03/18 05:21:55;;;;;;;;;31.75;28.75;;;;;-146.03;100.00;60875.16;5005663;28;45428;-82
2022/03/18 05:24:21;;;;;;;;;29.75;24.75;;;;;-146.03;100.00;60875.16;5005447;28;45886;-82
2022/03/18 05:26:46;;;;;;;;;33.00;26.50;;;;;-146.03;100.00;60875.16;5000700;28;45419;-82
2022/03/18 05:29:13;;;;;;;;;30.50;25.25;;;;;-146.03;100.00;60875.16;4984511;28;47201;-82
2022/03/18 05:31:39;;;;;;;;;32.25;30.00;;;;;-146.03;100.00;60875.16;5004986;28;45428;-82
2022/03/18 05:34:04;;;;;;;;;27.25;24.50;;;;;-146.03;100.00;60875.16;5005319;28;45664;-83
2022/03/18 05:36:29;;;;;;;;;32.00;26.00;;;;;-146.03;100.00;60875.16;5005285;28;45357;-82
2022/03/18 05:38:55;;;;;;;;;37.00;34.75;;;;;-146.03;100.00;60875.16;5001528;28;46618;-83
2022/03/18 05:41:20;;;;;;;;;31.25;26.50;;;;;-146.03;100.00;60875.16;5017069;28;45319;-82
2022/03/18 05:43:45;;;;;;;;;32.25;29.75;;;;;-146.03;100.00;60875.16;4998643;28;45494;-82
2022/03/18 05:46:13;;;;;;;;;32.75;28.25;;;;;-146.03;100.00;60875.16;5015844;28;45485;-83
2022/03/18 05:48:39;;;;;;;;;31.50;27.00;;;;;-146.03;100.00;60875.16;5016276;28;46300;-82
2022/03/18 05:51:04;;;;;;;;;34.50;26.50;;;;;-146.03;100.00;60875.16;5015082;28;45451;-82
2022/03/18 05:53:30;;;;;;;;;29.75;26.75;;;;;-146.03;100.00;60875.16;4998651;28;45443;-82
2022/03/18 05:58:41;;;;;;;;;33.00;24.25;;;;;-146.03;100.00;60875.16;5016161;28;45268;-83
2022/03/18 06:01:07;;;;;;;;;28.25;25.00;;;;;-146.03;100.00;60875.16;5015734;28;45514;-83
2022/03/18 06:03:33;;;;;;;;;28.25;25.00;;;;;-146.03;100.00;60875.16;5016098;28;45480;-83
2022/03/18 06:05:59;;;;;;;;;29.00;26.50;;;;;-146.03;100.00;60875.16;5016399;28;45395;-83
2022/03/18 06:13:52;;;;;;;;;31.25;27.00;;;;;-146.03;100.00;60875.16;5014938;28;45626;-83
2022/03/18 06:16:17;;;;;;;;;27.00;26.75;;;;;-146.03;100.00;60875.16;5015661;28;45350;-83
2022/03/18 06:18:42;;;;;;;;;29.25;28.00;;;;;-146.03;100.00;60875.16;5015419;28;46602;-83
2022/03/18 06:21:08;;;;;;;;;29.00;29.00;;;;;-146.03;100.00;60875.16;5015751;28;45527;-83
2022/03/18 06:23:37;;;;;;;;;28.25;24.00;;;;;-146.03;100.00;60875.16;5015844;28;45458;-83
2022/03/18 06:26:02;;;;;;;;;24.25;23.50;;;;;-146.03;100.00;60875.16;4996571;28;46802;-82
2022/03/18 06:28:28;;;;;;;;;30.00;26.25;;;;;-146.03;100.00;60875.16;5014916;28;45572;-83
2022/03/18 06:30:53;;;;;;;;;44.00;34.25;;;;;-146.03;100.00;60875.16;5015456;28;45395;-83
2022/03/18 06:33:19;;;;;;;;;32.00;29.00;;;;;-146.03;100.00;60875.16;5015273;28;45575;-83
2022/03/18 06:35:44;;;;;;;;;27.25;26.50;;;;;-146.03;100.00;60875.16;5015363;28;45510;-83
2022/03/18 06:38:10;;;;;;;;;35.00;29.25;;;;;-146.03;100.00;60875.16;5015744;28;45918;-82
2022/03/18 06:40:35;;;;;;;;;27.00;24.00;;;;;-146.03;100.00;60875.16;5015240;28;45280;-82
2022/03/18 06:43:00;;;;;;;;;31.50;28.00;;;;;-146.03;100.00;60875.16;5014842;28;45457;-83
2022/03/18 06:45:26;;;;;;;;;19.50;18.50;;;;;-146.03;100.00;60875.16;5014556;28;45527;-82
2022/03/18 06:47:52;;;;;;;;;30.50;25.75;;;;;-146.03;100.00;60875.16;5015041;28;47428;-83
2022/03/18 06:50:17;;;;;;;;;10.75;10.75;;;;;-146.03;100.00;60875.16;5015897;28;45552;-83
2022/03/18 06:52:42;;;;;;;;;26.50;26.25;;;;;-146.03;100.00;60875.16;4995831;28;45339;-83
2022/03/18 06:55:08;;;;;;;;;35.50;28.50;;;;;-146.03;100.00;60875.16;5014738;28;45495;-83
2022/03/18 06:57:33;;;;;;;;;28.75;26.25;;;;;-146.03;100.00;60875.16;5014751;28;45992;-83
2022/03/18 06:59:59;;;;;;;;;33.25;30.50;;;;;-146.03;100.00;60875.16;5015325;28;45366;-82
2022/03/18 07:02:26;;;;;;;;;32.50;29.00;;;;;-146.03;100.00;60875.16;5014842;28;45553;-83
2022/03/18 07:04:51;;;;;;;;;27.75;24.00;;;;;-146.03;100.00;60875.16;5015085;28;45304;-83
2022/03/18 07:07:16;;;;;;;;;34.00;29.50;;;;;-146.03;100.00;60875.16;5014960;28;45281;-83
2022/03/18 07:09:42;;;;;;;;;29.75;24.75;;;;;-146.03;100.00;60875.16;5014844;28;45446;-83
2022/03/18 07:12:08;;;;;;;;;34.75;27.00;;;;;-146.03;100.00;60875.16;5014774;28;45418;-83
2022/03/18 07:14:33;;;;;;;;;39.75;30.75;;;;;-146.03;100.00;60875.16;5014424;28;45514;-83
2022/03/18 07:19:43;;;;;;;;;25.25;23.50;;;;;-146.03;100.00;60875.16;5014582;28;45439;-83
2022/03/18 07:22:08;;;;;;;;;30.50;28.50;;;;;-146.03;100.00;60875.16;5014119;28;45436;-82
2022/03/18 07:24:34;;;;;;;;;34.50;30.50;;;;;-146.03;100.00;60875.16;4996605;28;45509;-82
2022/03/18 07:26:59;;;;;;;;;33.50;31.50;;;;;-146.03;100.00;60875.16;5014393;28;45466;-82
2022/03/18 07:29:25;;;;;;;;;30.00;29.00;;;;;-146.03;100.00;60875.16;5014927;28;45316;-82
2022/03/18 07:31:54;;;;;;;;;30.75;28.00;;;;;-146.03;100.00;60875.16;5012756;28;45522;-83
2022/03/18 07:34:21;;;;;;;;;32.75;26.50;;;;;-146.03;100.00;60875.16;5013699;28;45354;-83
2022/03/18 07:36:47;;;;;;;;;30.25;27.25;;;;;-146.03;100.00;60875.16;5011440;28;46239;-82
2022/03/18 07:39:13;;;;;;;;;31.75;26.00;;;;;-146.03;100.00;60875.16;5014514;28;45592;-82
2022/03/18 07:41:38;;;;;;;;;30.25;27.25;;;;;-146.03;100.00;60875.16;4996526;28;45664;-82
2022/03/18 07:44:04;;;;;;;;;36.00;27.00;;;;;-146.03;100.00;60875.16;4997414;28;45853;-82
2022/03/18 07:46:29;;;;;;;;;32.25;29.00;;;;;-146.03;100.00;60875.16;5012902;28;46187;-82
2022/03/18 07:48:55;;;;;;;;;31.50;29.50;;;;;-146.03;100.00;60875.16;5014885;28;45417;-83
2022/03/18 07:51:20;;;;;;;;;20.00;17.75;;;;;-146.03;100.00;60875.16;5014032;28;45312;-82
2022/03/18 07:53:46;;;;;;;;;32.00;26.25;;;;;-146.03;100.00;60875.16;5013991;28;45542;-82
2022/03/18 07:56:11;;;;;;;;;31.50;29.75;;;;;-146.03;100.00;60875.16;5013300;28;46274;-82
2022/03/18 07:58:36;;;;;;;;;28.75;26.75;;;;;-146.03;100.00;60875.16;5013992;28;45706;-82
2022/03/18 08:01:05;;;;;;;;;25.00;24.50;;;;;-146.03;100.00;60875.16;5013322;28;45407;-82
2022/03/18 08:03:30;;;;;;;;;28.75;27.25;;;;;-146.03;100.00;60875.16;5013427;28;45586;-82
2022/03/18 08:05:56;;;;;;;;;33.50;24.50;;;;;-146.03;100.00;60875.16;5014405;28;46256;-82
2022/03/18 08:08:21;;;;;;;;;27.75;26.75;;;;;-146.03;100.00;60875.16;4996740;28;45724;-82
2022/03/18 08:10:47;;;;;;;;;32.00;29.50;;;;;-146.03;100.00;60875.16;5013433;28;48845;-82
2022/03/18 08:13:12;;;;;;;;;25.00;25.00;;;;;-146.03;100.00;60875.16;5012890;28;45366;-82
2022/03/18 08:15:40;;;;;;;;;26.75;25.00;;;;;-146.03;100.00;60875.16;5016032;28;45555;-82
2022/03/18 08:18:08;;;;;;;;;28.50;25.50;;;;;-146.03;100.00;60875.16;5017698;28;45415;-82
2022/03/18 08:20:39;;;;;;;;;26.00;24.00;;;;;-146.03;100.00;60875.16;5018144;28;45311;-82
2022/03/18 08:23:04;;;;;;;;;30.00;23.75;;;;;-146.03;100.00;60875.16;5016364;28;45434;-82
2022/03/18 08:25:30;;;;;;;;;27.75;23.25;;;;;-146.03;100.00;60875.16;5016906;28;46298;-82
2022/03/18 08:27:55;;;;;;;;;36.00;26.00;;;;;-146.03;100.00;60875.16;5017441;28;45454;-82
2022/03/18 08:30:20;;;;;;;;;34.00;28.00;;;;;-146.03;100.00;60875.16;5017624;28;45236;-82
2022/03/18 08:32:46;;;;;;;;;30.75;26.75;;;;;-146.03;100.00;60875.16;5017660;28;45322;-82
2022/03/18 08:35:11;;;;;;;;;30.75;27.75;;;;;-146.03;100.00;60875.16;5018090;28;46048;-82
2022/03/18 08:37:56;;;;;;;;;24.50;20.50;;;;;-146.03;100.00;60875.16;5017314;28;45444;-82
2022/03/18 08:40:22;;;;;;;;;25.75;22.75;;;;;-146.03;100.00;60875.16;5017335;28;45509;-82
2022/03/18 08:42:48;;;;;;;;;25.75;24.75;;;;;-146.03;100.00;60875.16;5017389;28;45476;-82
2022/03/18 08:45:13;;;;;;;;;25.50;24.00;;;;;-146.03;100.00;60875.16;5017177;28;45506;-82
2022/03/18 08:47:38;;;;;;;;;29.50;26.50;;;;;-146.03;100.00;60875.16;5017323;28;45435;-82
2022/03/18 08:50:05;;;;;;;;;26.25;23.75;;;;;-146.03;100.00;60875.16;5018172;28;45403;-82
2022/03/18 08:52:30;;;;;;;;;25.00;20.75;;;;;-146.03;100.00;60875.16;5017300;28;45355;-82
2022/03/18 08:54:56;;;;;;;;;27.00;25.50;;;;;-146.03;100.00;60875.16;5016737;28;45503;-82
2022/03/18 08:57:21;;;;;;;;;23.00;19.00;;;;;-146.03;100.00;60875.16;5017351;28;45293;-82
2022/03/18 08:59:46;;;;;;;;;24.25;24.25;;;;;-146.03;100.00;60875.16;5017429;28;45517;-82
2022/03/18 09:02:12;;;;;;;;;26.25;21.25;;;;;-146.03;100.00;60875.16;5017393;28;49081;-82
2022/03/18 09:04:37;;;;;;;;;21.25;19.75;;;;;-146.03;100.00;60875.16;5016904;28;45435;-82
2022/03/18 09:07:03;;;;;;;;;19.75;18.75;;;;;-146.03;100.00;60875.16;5016443;28;45406;-82
2022/03/18 09:09:28;;;;;;;;;22.00;22.00;;;;;-146.03;100.00;60875.16;5016768;28;45471;-82
2022/03/18 09:11:54;;;;;;;;;14.00;14.00;;;;;-146.03;100.00;60875.16;5017270;28;45368;-82
2022/03/18 09:14:20;;;;;;;;;25.00;18.75;;;;;-146.03;100.00;60875.16;4999417;28;56799;-82
2022/03/18 09:16:47;;;;;;;;;19.50;18.50;;;;;-146.03;100.00;60875.16;5016824;28;45499;-82
2022/03/18 09:19:12;;;;;;;;;19.50;18.25;;;;;-146.03;100.00;60875.16;4997851;28;45481;-82
2022/03/18 09:21:38;;;;;;;;;20.00;19.00;;;;;-146.03;100.00;60875.16;4998886;28;45489;-82
2022/03/18 09:24:03;;;;;;;;;18.75;17.25;;;;;-146.03;100.00;60875.16;5016360;28;46298;-83
2022/03/18 09:26:29;;;;;;;;;19.50;18.00;;;;;-146.03;100.00;60875.16;5016543;28;45390;-82
2022/03/18 09:28:55;;;;;;;;;23.00;20.75;;;;;-146.03;100.00;60875.16;5017190;28;45383;-82
2022/03/18 09:31:21;;;;;;;;;19.00;18.50;;;;;-146.03;100.00;60875.16;5016855;28;45824;-82
2022/03/18 09:33:46;;;;;;;;;20.25;14.75;;;;;-146.03;100.00;60875.16;5016396;28;45603;-82
2022/03/18 09:36:18;;;;;;;;;23.75;17.00;;;;;-146.03;100.00;60875.16;5016423;28;45350;-82
2022/03/18 09:38:47;;;;;;;;;22.75;20.25;;;;;-146.03;100.00;60875.16;5016225;28;45441;-82
2022/03/18 09:41:13;;;;;;;;;21.00;18.25;;;;;-146.03;100.00;60875.16;5016714;28;45315;-82
2022/03/18 09:43:40;;;;;;;;;23.25;18.25;;;;;-146.03;100.00;60875.16;4993254;28;47548;-82
2022/03/18 09:46:08;;;;;;;;;16.75;16.00;;;;;-146.03;100.00;60875.16;5013511;28;45217;-82
2022/03/18 09:48:34;;;;;;;;;18.75;16.50;;;;;-146.03;100.00;60875.16;5014960;28;45514;-82
2022/03/18 09:50:59;;;;;;;;;17.75;16.00;;;;;-146.03;100.00;60875.16;5016454;28;45538;-82
2022/03/18 09:53:25;;;;;;;;;21.75;21.00;;;;;-146.03;100.00;60875.16;5015693;28;54593;-83
2022/03/18 09:55:51;;;;;;;;;20.50;18.50;;;;;-146.03;100.00;60875.16;5016598;28;45521;-82
2022/03/18 09:58:18;;;;;;;;;19.50;19.25;;;;;-146.03;100.00;60875.16;5017321;28;45401;-82
2022/03/18 10:00:45;;;;;;;;;16.00;15.25;;;;;-146.03;100.00;60875.16;5016414;28;45405;-82
2022/03/18 10:03:17;;;;;;;;;17.50;15.50;;;;;-146.03;100.00;60875.16;5015421;28;45506;-82
2022/03/18 10:05:59;;;;;;;;;16.00;16.00;;;;;-146.03;100.00;60875.16;5015096;28;45272;-82
2022/03/18 10:08:25;;;;;;;;;18.00;16.00;;;;;-146.03;100.00;60875.16;5013054;28;45398;-82
2022/03/18 10:10:50;;;;;;;;;16.75;16.00;;;;;-146.03;100.00;60875.16;4999092;28;45889;-82
2022/03/18 10:13:16;;;;;;;;;14.75;14.75;;;;;-146.03;100.00;60875.16;5015558;28;46080;-82
2022/03/18 10:15:43;;;;;;;;;15.25;13.25;;;;;-146.03;100.00;60875.16;4997803;28;46096;-82
2022/03/18 10:18:12;;;;;;;;;11.25;10.00;;;;;-146.03;100.00;60875.16;5015454;28;45455;-83
2022/03/18 10:20:40;;;;;;;;;14.00;14.00;;;;;-146.03;100.00;60875.16;5015412;28;45534;-82
2022/03/18 10:23:15;;;;;;;;;14.25;14.25;;;;;-146.03;100.00;60875.16;5014884;28;45642;-83
2022/03/18 10:25:50;;;;;;;;;18.00;15.00;;;;;-146.03;100.00;60875.16;4996928;28;45359;-83
2022/03/18 10:28:18;;;;;;;;;17.50;14.50;;;;;-146.03;100.00;60875.16;5015653;28;45568;-83
2022/03/18 10:30:43;;;;;;;;;17.75;15.25;;;;;-146.03;100.00;60875.16;4994803;28;45713;-82
2022/03/18 10:33:09;;;;;;;;;13.75;12.75;;;;;-146.03;100.00;60875.16;5015383;28;45838;-83
2022/03/18 10:38:32;;;;;;;;;10.50;10.00;;;;;-146.03;100.00;60875.16;5015194;28;45417;-81
2022/03/18 10:40:59;;;;;;;;;13.75;12.50;;;;;-146.03;100.00;60875.16;4997012;28;45455;-81
2022/03/18 10:43:24;;;;;;;;;15.25;12.50;;;;;-146.03;100.00;60875.16;4994925;28;47506;-81
2022/03/18 10:46:06;;;;;;;;;17.50;11.25;;;;;-146.03;100.00;60875.16;5014286;28;49504;-81
2022/03/18 10:48:32;;;;;;;;;10.75;10.25;;;;;-146.03;100.00;60875.16;4992724;28;45426;-81
2022/03/18 10:51:05;;;;;;;;;11.25;8.00;;;;;-146.03;100.00;60875.16;5013953;28;45544;-81
2022/03/18 10:53:33;;;;;;;;;10.00;10.00;;;;;-146.03;100.00;60875.16;5013498;28;46952;-81
2022/03/18 10:56:03;;;;;;;;;12.50;10.50;;;;;-146.03;100.00;60875.16;5015195;28;45437;-81
2022/03/18 10:58:32;;;;;;;;;9.50;9.00;;;;;-146.03;100.00;60875.16;5013807;28;47156;-81
2022/03/18 11:01:02;;;;;;;;;10.00;10.00;;;;;-146.03;100.00;60875.16;5014070;28;45588;-81
2022/03/18 11:03:29;;;;;;;;;20.75;13.75;;;;;-146.03;100.00;60875.16;5014010;28;45529;-81
2022/03/18 11:05:55;;;;;;;;;12.25;10.00;;;;;-146.03;100.00;60875.16;5013609;28;45524;-81
2022/03/18 11:08:31;;;;;;;;;10.75;10.75;;;;;-146.03;100.00;60875.16;4996754;28;45605;-81
2022/03/18 11:11:18;;;;;;;;;10.25;10.00;;;;;-146.03;100.00;60875.16;5014806;28;45322;-81
2022/03/18 11:13:47;;;;;;;;;12.25;10.25;;;;;-146.03;100.00;60875.16;5015878;28;45638;-81
2022/03/18 11:16:16;;;;;;;;;9.50;9.25;;;;;-146.03;100.00;60875.16;5014434;28;45634;-81